Check out our new BloomSky Weather System.

Active alerts


No alerts


Thunder radar  blitzortung!


Rain radar more information rain snow radar


Visit our other weather sites:

Template documentation
and downloads

And another site



Weather Underground History page Text

Daily Summary for June 19, 2017 Units:  Metric    English   Both
« Previous Day
Next Day »
Daily Weekly Monthly Yearly Custom
  High: Low: Average:
Temperature: 36.1 °C 24.9 °C 30.5 °C
Dew Point: 26.6 °C 21.1 °C 23.9 °C
Humidity: 95 % 44 % 70 %
Wind Speed: 12.9 km/h 0 km/h 1.9 km/h
Wind Gust: 14.5 km/h - -
Wind:- - South
Pressure: 1014.4 hPa 1010.4 hPa -
Precipitation: 0 mm    
Historical Graphs
 
 
Tabular Data for June 19, 2017
Time Temperature Dew Point Pressure Wind Wind Speed Wind Gust Humidity Rainfall Rate (Hourly)
00:03 27.9 °C 24.7 °C 1010.4 hPa SSE 4.8 km/h 11.3 km/h 83 % 0 mm
00:08 27.8 °C 24.6 °C 1010.4 hPa South 3.2 km/h 11.3 km/h 83 % 0 mm
00:13 27.8 °C 24.8 °C 1010.4 hPa South 6.4 km/h 11.3 km/h 84 % 0 mm
00:18 27.8 °C 24.8 °C 1010.4 hPa SSE 3.2 km/h 11.3 km/h 84 % 0 mm
00:23 27.7 °C 24.7 °C 1010.4 hPa South 6.4 km/h 11.3 km/h 84 % 0 mm
00:28 27.7 °C 24.9 °C 1010.4 hPa SE 1.6 km/h 11.3 km/h 85 % 0 mm
00:33 27.7 °C 24.9 °C 1010.4 hPa SSE 1.6 km/h 11.3 km/h 85 % 0 mm
00:38 27.6 °C 24.8 °C 1010.4 hPa SE 3.2 km/h 11.3 km/h 85 % 0 mm
00:43 27.6 °C 24.8 °C 1010.4 hPa South 4.8 km/h 9.7 km/h 85 % 0 mm
00:48 27.6 °C 24.8 °C 1010.4 hPa SSE 4.8 km/h 9.7 km/h 85 % 0 mm
00:53 27.6 °C 24.8 °C 1010.4 hPa SSE 1.6 km/h 9.7 km/h 85 % 0 mm
00:58 27.6 °C 24.8 °C 1010.7 hPa SSE 1.6 km/h 9.7 km/h 85 % 0 mm
01:03 27.5 °C 24.7 °C 1010.7 hPa SE 4.8 km/h 9.7 km/h 85 % 0 mm
01:08 27.4 °C 24.8 °C 1010.7 hPa SE 1.6 km/h 9.7 km/h 86 % 0 mm
01:13 27.4 °C 24.8 °C 1010.7 hPa SSE 4.8 km/h 8 km/h 86 % 0 mm
01:18 27.4 °C 24.8 °C 1010.7 hPa East 3.2 km/h 8 km/h 86 % 0 mm
01:23 27.3 °C 24.7 °C 1010.7 hPa Calm   6.4 km/h 86 % 0 mm
01:28 27.3 °C 24.7 °C 1010.4 hPa Calm   6.4 km/h 86 % 0 mm
01:33 27.3 °C 24.7 °C 1010.7 hPa SE 1.6 km/h 6.4 km/h 86 % 0 mm
01:38 27.2 °C 24.7 °C 1010.7 hPa Calm   6.4 km/h 86 % 0 mm
01:43 27.2 °C 24.7 °C 1010.7 hPa East 3.2 km/h 6.4 km/h 86 % 0 mm
01:48 27.2 °C 24.8 °C 1010.7 hPa SSW 1.6 km/h 6.4 km/h 87 % 0 mm
01:53 27.1 °C 24.7 °C 1010.4 hPa South 4.8 km/h 4.8 km/h 87 % 0 mm
01:58 27.1 °C 24.7 °C 1010.4 hPa SE 4.8 km/h 6.4 km/h 87 % 0 mm
02:03 27.1 °C 24.7 °C 1010.4 hPa SSE 3.2 km/h 6.4 km/h 87 % 0 mm
02:08 27.1 °C 24.7 °C 1010.4 hPa SW 3.2 km/h 6.4 km/h 87 % 0 mm
02:13 27 °C 24.8 °C 1010.7 hPa Calm   6.4 km/h 88 % 0 mm
02:18 27 °C 24.8 °C 1010.7 hPa SSE 3.2 km/h 4.8 km/h 88 % 0 mm
02:23 27 °C 24.8 °C 1010.7 hPa Calm   4.8 km/h 88 % 0 mm
02:29 27 °C 24.8 °C 1010.7 hPa SE 1.6 km/h 4.8 km/h 88 % 0 mm
02:34 27 °C 24.8 °C 1010.7 hPa SE 1.6 km/h 4.8 km/h 88 % 0 mm
02:39 27 °C 24.8 °C 1010.7 hPa SE 1.6 km/h 4.8 km/h 88 % 0 mm
02:44 27 °C 24.8 °C 1010.7 hPa SSE 1.6 km/h 4.8 km/h 88 % 0 mm
02:49 26.9 °C 24.7 °C 1011.1 hPa SE 1.6 km/h 4.8 km/h 88 % 0 mm
02:51 26.9 °C 24.7 °C 1011.1 hPa Calm   4.8 km/h 88 % 0 mm
02:56 26.8 °C 24.6 °C 1011.1 hPa Calm   3.2 km/h 88 % 0 mm
03:01 26.7 °C 24.5 °C 1011.1 hPa Calm   3.2 km/h 88 % 0 mm
03:06 26.5 °C 24.5 °C 1011.1 hPa Calm     89 % 0 mm
03:11 26.5 °C 24.5 °C 1011.1 hPa Calm   1.6 km/h 89 % 0 mm
03:16 26.4 °C 24.4 °C 1011.1 hPa Calm   1.6 km/h 89 % 0 mm
03:21 26.3 °C 24.5 °C 1011.1 hPa SE 1.6 km/h 1.6 km/h 90 % 0 mm
03:26 26.3 °C 24.5 °C 1011.1 hPa Calm   1.6 km/h 90 % 0 mm
03:31 26.3 °C 24.5 °C 1011.1 hPa Calm   1.6 km/h 90 % 0 mm
03:36 26.3 °C 24.7 °C 1011.1 hPa Calm   1.6 km/h 91 % 0 mm
03:41 26.2 °C 24.6 °C 1011.1 hPa Calm   1.6 km/h 91 % 0 mm
03:46 26.2 °C 24.6 °C 1011.1 hPa Calm   1.6 km/h 91 % 0 mm
03:51 26.1 °C 24.5 °C 1011.1 hPa Calm   1.6 km/h 91 % 0 mm
03:56 26 °C 24.4 °C 1011.1 hPa Calm   1.6 km/h 91 % 0 mm
04:01 26 °C 24.4 °C 1011.1 hPa Calm   1.6 km/h 91 % 0 mm
04:06 25.9 °C 24.3 °C 1011.1 hPa Calm     91 % 0 mm
04:11 25.8 °C 24.4 °C 1011.1 hPa Calm     92 % 0 mm
04:16 25.8 °C 24.4 °C 1011.1 hPa Calm     92 % 0 mm
04:21 25.7 °C 24.3 °C 1011.1 hPa Calm     92 % 0 mm
04:26 25.6 °C 24.2 °C 1011.1 hPa Calm     92 % 0 mm
04:31 25.6 °C 24.4 °C 1011.1 hPa Calm     93 % 0 mm
04:36 25.4 °C 24.2 °C 1011.1 hPa Calm     93 % 0 mm
04:41 25.4 °C 24.2 °C 1011.1 hPa Calm     93 % 0 mm
04:46 25.3 °C 24.1 °C 1011.1 hPa Calm     93 % 0 mm
04:51 25.4 °C 24.2 °C 1011.1 hPa Calm     93 % 0 mm
04:56 25.4 °C 24.2 °C 1011.1 hPa Calm   1.6 km/h 93 % 0 mm
05:01 25.4 °C 24.4 °C 1011.1 hPa Calm   1.6 km/h 94 % 0 mm
05:06 25.5 °C 24.5 °C 1011.1 hPa Calm   1.6 km/h 94 % 0 mm
05:11 25.6 °C 24.6 °C 1011.1 hPa Calm   1.6 km/h 94 % 0 mm
05:16 25.6 °C 24.6 °C 1011.1 hPa Calm   1.6 km/h 94 % 0 mm
05:21 25.6 °C 24.6 °C 1011.1 hPa Calm   3.2 km/h 94 % 0 mm
05:26 25.6 °C 24.6 °C 1011.1 hPa Calm   3.2 km/h 94 % 0 mm
05:31 25.5 °C 24.5 °C 1011.1 hPa Calm   3.2 km/h 94 % 0 mm
05:36 25.5 °C 24.5 °C 1011.1 hPa Calm   1.6 km/h 94 % 0 mm
05:41 25.4 °C 24.4 °C 1011.1 hPa Calm   1.6 km/h 94 % 0 mm
05:46 25.4 °C 24.4 °C 1011.4 hPa Calm     94 % 0 mm
05:51 25.3 °C 24.3 °C 1011.4 hPa Calm     94 % 0 mm
05:56 25.3 °C 24.3 °C 1011.4 hPa Calm   1.6 km/h 94 % 0 mm
06:02 25.2 °C 24.2 °C 1011.4 hPa Calm   1.6 km/h 94 % 0 mm
06:07 25.1 °C 24.1 °C 1011.4 hPa Calm   1.6 km/h 94 % 0 mm
06:12 25 °C 24 °C 1011.7 hPa Calm     94 % 0 mm
06:17 25 °C 24.1 °C 1011.7 hPa Calm   1.6 km/h 95 % 0 mm
06:22 24.9 °C 24 °C 1011.7 hPa Calm   1.6 km/h 95 % 0 mm
06:27 24.9 °C 24 °C 1012.1 hPa Calm   1.6 km/h 95 % 0 mm
06:32 24.9 °C 24 °C 1012.1 hPa Calm   1.6 km/h 95 % 0 mm
06:37 24.9 °C 24 °C 1012.1 hPa Calm   1.6 km/h 95 % 0 mm
06:42 24.9 °C 24 °C 1012.4 hPa Calm   1.6 km/h 95 % 0 mm
06:47 24.9 °C 24 °C 1012.4 hPa Calm   1.6 km/h 95 % 0 mm
06:52 24.9 °C 24 °C 1012.1 hPa Calm   1.6 km/h 95 % 0 mm
06:57 25.1 °C 24.2 °C 1012.4 hPa Calm   1.6 km/h 95 % 0 mm
06:59 25.1 °C 24.2 °C 1012.4 hPa Calm   1.6 km/h 95 % 0 mm
07:04 25.2 °C 24.3 °C 1012.4 hPa Calm   1.6 km/h 95 % 0 mm
07:09 25.3 °C 24.4 °C 1012.4 hPa Calm   1.6 km/h 95 % 0 mm
07:14 25.6 °C 24.7 °C 1012.8 hPa North 1.6 km/h 1.6 km/h 95 % 0 mm
07:19 25.8 °C 24.9 °C 1012.8 hPa Calm   1.6 km/h 95 % 0 mm
07:23 26 °C 25 °C 1012.8 hPa NW 1.6 km/h 3.2 km/h 94 % 0 mm
07:28 26.3 °C 25.3 °C 1012.8 hPa Calm   3.2 km/h 94 % 0 mm
07:33 26.7 °C 25.5 °C 1012.8 hPa Calm   3.2 km/h 93 % 0 mm
07:38 27 °C 25.6 °C 1012.8 hPa NNW 1.6 km/h 3.2 km/h 92 % 0 mm
07:43 27.3 °C 25.9 °C 1013.1 hPa Calm   3.2 km/h 92 % 0 mm
07:48 27.6 °C 26 °C 1013.1 hPa Calm   3.2 km/h 91 % 0 mm
07:53 27.8 °C 25.8 °C 1012.8 hPa Calm   3.2 km/h 89 % 0 mm
07:58 28.1 °C 26.1 °C 1012.8 hPa Calm   3.2 km/h 89 % 0 mm
08:03 28.5 °C 26.1 °C 1013.1 hPa NE 1.6 km/h 3.2 km/h 87 % 0 mm
08:08 28.7 °C 26.3 °C 1012.8 hPa Calm   3.2 km/h 87 % 0 mm
08:13 29.2 °C 26.6 °C 1012.8 hPa Calm   1.6 km/h 86 % 0 mm
08:14 29.3 °C 26.5 °C 1012.8 hPa ESE 1.6 km/h 1.6 km/h 85 % 0 mm
08:18 29.4 °C 26.4 °C 1012.8 hPa Calm   1.6 km/h 84 % 0 mm
08:23 29.4 °C 26 °C 1012.4 hPa Calm   3.2 km/h 82 % 0 mm
08:28 29.3 °C 25.9 °C 1012.4 hPa SSE 3.2 km/h 4.8 km/h 82 % 0 mm
08:33 29.2 °C 25.8 °C 1012.8 hPa South 4.8 km/h 4.8 km/h 82 % 0 mm
08:38 29.2 °C 25.8 °C 1012.8 hPa SE 1.6 km/h 6.4 km/h 82 % 0 mm
08:43 29.3 °C 25.5 °C 1012.8 hPa ESE 1.6 km/h 6.4 km/h 80 % 0 mm
08:48 29.6 °C 26 °C 1013.1 hPa Calm   6.4 km/h 81 % 0 mm
08:53 30 °C 26 °C 1012.8 hPa SSW 3.2 km/h 6.4 km/h 79 % 0 mm
08:58 30.2 °C 25.7 °C 1012.8 hPa NNW 1.6 km/h 6.4 km/h 77 % 0 mm
09:03 29.9 °C 25 °C 1012.8 hPa SW 8 km/h 11.3 km/h 75 % 0 mm
09:08 29.6 °C 25.1 °C 1012.8 hPa ESE 8 km/h 11.3 km/h 77 % 0 mm
09:13 29.3 °C 24.8 °C 1012.8 hPa SSE 1.6 km/h 11.3 km/h 77 % 0 mm
09:18 29.3 °C 25.1 °C 1013.1 hPa SSW 4.8 km/h 9.7 km/h 78 % 0 mm
09:23 29.4 °C 25.2 °C 1013.1 hPa SSW 1.6 km/h 8 km/h 78 % 0 mm
09:28 29.9 °C 25.9 °C 1013.4 hPa Calm   8 km/h 79 % 0 mm
09:33 30.4 °C 25.7 °C 1013.8 hPa Calm   8 km/h 76 % 0 mm
09:38 30.8 °C 25.6 °C 1013.8 hPa Calm   4.8 km/h 74 % 0 mm
09:43 31.2 °C 25.5 °C 1013.8 hPa Calm   3.2 km/h 72 % 0 mm
09:48 31 °C 24.9 °C 1013.8 hPa Calm   6.4 km/h 70 % 0 mm
09:49 30.9 °C 25 °C 1013.8 hPa WNW 11.3 km/h 11.3 km/h 71 % 0 mm
09:54 30.8 °C 24.4 °C 1013.8 hPa Calm   11.3 km/h 69 % 0 mm
10:00 30.8 °C 24.7 °C 1013.8 hPa South 1.6 km/h 11.3 km/h 70 % 0 mm
10:05 30.9 °C 25 °C 1013.8 hPa SSW 1.6 km/h 11.3 km/h 71 % 0 mm
10:10 31.3 °C 25.6 °C 1013.4 hPa Calm   6.4 km/h 72 % 0 mm
10:15 31.7 °C 24.8 °C 1013.4 hPa NNW 1.6 km/h 6.4 km/h 67 % 0 mm
10:20 31.6 °C 25 °C 1013.4 hPa WNW 1.6 km/h 3.2 km/h 68 % 0 mm
10:25 31.8 °C 25.2 °C 1013.4 hPa NW 4.8 km/h 8 km/h 68 % 0 mm
10:30 31.8 °C 25.2 °C 1013.4 hPa ENE 1.6 km/h 8 km/h 68 % 0 mm
10:34 31.7 °C 24.3 °C 1013.4 hPa Calm   8 km/h 65 % 0 mm
10:39 32 °C 24.6 °C 1013.8 hPa ESE 3.2 km/h 8 km/h 65 % 0 mm
10:44 32.2 °C 24.8 °C 1013.4 hPa East 1.6 km/h 6.4 km/h 65 % 0 mm
10:49 32.3 °C 24.4 °C 1013.8 hPa SSE 1.6 km/h 8 km/h 63 % 0 mm
10:54 32.3 °C 24.6 °C 1013.8 hPa NW 1.6 km/h 8 km/h 64 % 0 mm
11:00 32.3 °C 24.9 °C 1013.8 hPa NW 3.2 km/h 8 km/h 65 % 0 mm
11:05 32.3 °C 24.9 °C 1013.8 hPa WNW 1.6 km/h 6.4 km/h 65 % 0 mm
11:10 32.3 °C 24.4 °C 1014.1 hPa WNW 1.6 km/h 9.7 km/h 63 % 0 mm
11:15 32.2 °C 24.8 °C 1014.1 hPa Calm   9.7 km/h 65 % 0 mm
11:20 32.2 °C 24.3 °C 1014.1 hPa NNW 9.7 km/h 9.7 km/h 63 % 0 mm
11:25 31.7 °C 24 °C 1014.1 hPa West 1.6 km/h 14.5 km/h 64 % 0 mm
11:30 31.7 °C 24 °C 1014.4 hPa NNW 6.4 km/h 14.5 km/h 64 % 0 mm
11:35 31.5 °C 23.9 °C 1014.4 hPa West 1.6 km/h 12.9 km/h 64 % 0 mm
11:40 31.6 °C 24.2 °C 1014.4 hPa NNW 6.4 km/h 12.9 km/h 65 % 0 mm
11:45 31.7 °C 23.8 °C 1014.4 hPa NW 4.8 km/h 11.3 km/h 63 % 0 mm
11:50 31.7 °C 23.5 °C 1014.4 hPa NW 4.8 km/h 11.3 km/h 62 % 0 mm
11:55 31.8 °C 24.1 °C 1014.4 hPa NW 4.8 km/h 11.3 km/h 64 % 0 mm
12:00 32 °C 24.1 °C 1014.1 hPa WNW 4.8 km/h 12.9 km/h 63 % 0 mm
12:05 32.1 °C 24.2 °C 1014.1 hPa NNW 6.4 km/h 12.9 km/h 63 % 0 mm
12:10 32.1 °C 23.9 °C 1014.1 hPa NW 6.4 km/h 12.9 km/h 62 % 0 mm
12:15 32.2 °C 24 °C 1014.1 hPa NW 8 km/h 12.9 km/h 62 % 0 mm
12:20 32.2 °C 23.7 °C 1014.1 hPa West 3.2 km/h 12.9 km/h 61 % 0 mm
12:25 32.3 °C 23.8 °C 1013.8 hPa NNW 3.2 km/h 11.3 km/h 61 % 0 mm
12:30 32.4 °C 23.9 °C 1013.8 hPa NNW 3.2 km/h 11.3 km/h 61 % 0 mm
12:35 32.6 °C 24.4 °C 1013.4 hPa Calm   9.7 km/h 62 % 0 mm
12:40 32.9 °C 24.4 °C 1013.4 hPa South 3.2 km/h 9.7 km/h 61 % 0 mm
12:45 33.4 °C 23.7 °C 1013.4 hPa NNW 6.4 km/h 9.7 km/h 57 % 0 mm
12:50 33.1 °C 23.1 °C 1013.1 hPa North 1.6 km/h 9.7 km/h 56 % 0 mm
12:55 33 °C 23 °C 1013.1 hPa NW 3.2 km/h 9.7 km/h 56 % 0 mm
12:58 33 °C 23 °C 1013.1 hPa Calm   9.7 km/h 56 % 0 mm
13:03 33.7 °C 23.4 °C 1012.8 hPa SSW 1.6 km/h 9.7 km/h 55 % 0 mm
13:08 34.3 °C 23.3 °C 1012.8 hPa Calm   9.7 km/h 53 % 0 mm
13:10 34.5 °C 23.8 °C 1012.8 hPa WSW 8 km/h 11.3 km/h 54 % 0 mm
13:13 34.4 °C 22.5 °C 1012.8 hPa NW 9.7 km/h 11.3 km/h 50 % 0 mm
13:18 33.8 °C 21.9 °C 1012.8 hPa NW 1.6 km/h 11.3 km/h 50 % 0 mm
13:23 33.8 °C 23.2 °C 1012.4 hPa NNE 1.6 km/h 11.3 km/h 54 % 0 mm
13:28 34.3 °C 22.7 °C 1012.4 hPa South 1.6 km/h 11.3 km/h 51 % 0 mm
13:33 34.5 °C 21.2 °C 1012.1 hPa Calm   8 km/h 46 % 0 mm
13:38 34.8 °C 21.5 °C 1012.1 hPa SSW 12.9 km/h 12.9 km/h 46 % 0 mm
13:43 34.6 °C 22.3 °C 1012.1 hPa South 3.2 km/h 12.9 km/h 49 % 0 mm
13:48 34.8 °C 22.8 °C 1012.1 hPa SSE 1.6 km/h 12.9 km/h 50 % 0 mm
13:53 35.1 °C 22.8 °C 1011.7 hPa SE 1.6 km/h 12.9 km/h 49 % 0 mm
13:58 34.9 °C 21.6 °C 1011.7 hPa NNW 1.6 km/h 11.3 km/h 46 % 0 mm
14:03 35.1 °C 21.7 °C 1011.7 hPa ESE 3.2 km/h 8 km/h 46 % 0 mm
14:08 35 °C 21.6 °C 1011.7 hPa South 1.6 km/h 8 km/h 46 % 0 mm
14:13 35.1 °C 21.7 °C 1011.7 hPa North 3.2 km/h 8 km/h 46 % 0 mm
14:18 35.3 °C 22.3 °C 1011.7 hPa Calm   8 km/h 47 % 0 mm
14:23 35.3 °C 21.6 °C 1011.7 hPa NNW 3.2 km/h 6.4 km/h 45 % 0 mm
14:28 35.3 °C 22.3 °C 1011.4 hPa SW 3.2 km/h 6.4 km/h 47 % 0 mm
14:33 35.7 °C 22.6 °C 1011.4 hPa East 3.2 km/h 9.7 km/h 47 % 0 mm
14:38 35.4 °C 22.4 °C 1011.4 hPa SSE 3.2 km/h 9.7 km/h 47 % 0 mm
14:43 35.2 °C 23.2 °C 1011.4 hPa Calm   12.9 km/h 50 % 0 mm
14:48 35.1 °C 23.1 °C 1011.4 hPa Calm   12.9 km/h 50 % 0 mm
14:53 35.1 °C 23.1 °C 1011.4 hPa Calm   12.9 km/h 50 % 0 mm
14:58 35.4 °C 23.4 °C 1011.4 hPa SE 6.4 km/h 11.3 km/h 50 % 0 mm
15:03 35.3 °C 23 °C 1011.4 hPa WNW 4.8 km/h 11.3 km/h 49 % 0 mm
15:08 35.3 °C 23.3 °C 1011.4 hPa NW 4.8 km/h 9.7 km/h 50 % 0 mm
15:14 35.2 °C 23.2 °C 1011.4 hPa East 6.4 km/h 9.7 km/h 50 % 0 mm
15:19 35 °C 23 °C 1011.4 hPa North 1.6 km/h 8 km/h 50 % 0 mm
15:24 34.9 °C 23.3 °C 1011.4 hPa NW 3.2 km/h 8 km/h 51 % 0 mm
15:28 35.2 °C 23.5 °C 1011.4 hPa Calm   8 km/h 51 % 0 mm
15:33 35.4 °C 24 °C 1011.4 hPa ESE 8 km/h 8 km/h 52 % 0 mm
15:39 35.9 °C 24.2 °C 1011.4 hPa Calm   8 km/h 51 % 0 mm
15:44 36.1 °C 23.7 °C 1011.4 hPa NE 3.2 km/h 8 km/h 49 % 0 mm
15:49 35.8 °C 23.4 °C 1011.4 hPa NE 6.4 km/h 8 km/h 49 % 0 mm
15:54 35.6 °C 23.2 °C 1011.4 hPa NNW 3.2 km/h 8 km/h 49 % 0 mm
15:59 35.5 °C 23.1 °C 1011.4 hPa NNW 3.2 km/h 11.3 km/h 49 % 0 mm
16:04 35.7 °C 23 °C 1011.4 hPa North 1.6 km/h 12.9 km/h 48 % 0 mm
16:09 35.6 °C 22.9 °C 1011.1 hPa SE 3.2 km/h 12.9 km/h 48 % 0 mm
16:14 35.7 °C 23.3 °C 1011.1 hPa NE 4.8 km/h 12.9 km/h 49 % 0 mm
16:19 35.7 °C 23 °C 1011.1 hPa ENE 1.6 km/h 9.7 km/h 48 % 0 mm
16:24 35.8 °C 23.1 °C 1011.1 hPa ESE 1.6 km/h 9.7 km/h 48 % 0 mm
16:29 35.7 °C 23.3 °C 1011.1 hPa NNE 3.2 km/h 9.7 km/h 49 % 0 mm
16:34 35.1 °C 22.8 °C 1011.1 hPa NW 6.4 km/h 12.9 km/h 49 % 0 mm
16:39 34.6 °C 22.7 °C 1011.1 hPa Calm   12.9 km/h 50 % 0 mm
16:44 34.6 °C 23.3 °C 1010.7 hPa East 3.2 km/h 12.9 km/h 52 % 0 mm
16:49 34.7 °C 23.1 °C 1010.7 hPa SSE 3.2 km/h 9.7 km/h 51 % 0 mm
16:54 34.9 °C 22.9 °C 1010.7 hPa ENE 6.4 km/h 12.9 km/h 50 % 0 mm
16:59 34.8 °C 23.2 °C 1010.7 hPa NNE 3.2 km/h 14.5 km/h 51 % 0 mm
17:04 35.1 °C 22.8 °C 1010.7 hPa ENE 4.8 km/h 14.5 km/h 49 % 0 mm
17:09 35 °C 22.3 °C 1010.7 hPa NW 6.4 km/h 14.5 km/h 48 % 0 mm
17:14 35 °C 22.3 °C 1010.7 hPa ENE 6.4 km/h 14.5 km/h 48 % 0 mm
17:19 35.2 °C 22.2 °C 1010.7 hPa North 3.2 km/h 11.3 km/h 47 % 0 mm
17:24 35.4 °C 22 °C 1010.7 hPa WNW 3.2 km/h 11.3 km/h 46 % 0 mm
17:29 35.7 °C 22.3 °C 1010.7 hPa WNW 1.6 km/h 9.7 km/h 46 % 0 mm
17:34 35.6 °C 21.8 °C 1010.7 hPa Calm   9.7 km/h 45 % 0 mm
17:39 35.6 °C 21.5 °C 1010.7 hPa ENE 3.2 km/h 11.3 km/h 44 % 0 mm
17:44 35.6 °C 21.8 °C 1010.7 hPa WNW 1.6 km/h 11.3 km/h 45 % 0 mm
17:49 35.6 °C 21.5 °C 1010.7 hPa NNW 3.2 km/h 11.3 km/h 44 % 0 mm
17:54 35.2 °C 21.1 °C 1010.7 hPa Calm   9.7 km/h 44 % 0 mm
17:59 34.9 °C 21.2 °C 1010.7 hPa Calm   9.7 km/h 45 % 0 mm
18:04 34.6 °C 21.3 °C 1010.4 hPa NNW 1.6 km/h 6.4 km/h 46 % 0 mm
18:09 34.7 °C 21.4 °C 1010.4 hPa Calm   9.7 km/h 46 % 0 mm
18:14 35 °C 21.6 °C 1010.4 hPa ENE 3.2 km/h 9.7 km/h 46 % 0 mm
18:15 35.1 °C 21.7 °C 1010.4 hPa NE 3.2 km/h 9.7 km/h 46 % 0 mm
18:20 35.2 °C 21.5 °C 1010.4 hPa NW 3.2 km/h 9.7 km/h 45 % 0 mm
18:25 35.2 °C 22.2 °C 1010.4 hPa WNW 1.6 km/h 9.7 km/h 47 % 0 mm
18:30 35.2 °C 22.2 °C 1010.4 hPa NW 3.2 km/h 8 km/h 47 % 0 mm
18:35 35.1 °C 22.4 °C 1010.4 hPa NNE 4.8 km/h 8 km/h 48 % 0 mm
18:40 35 °C 22 °C 1010.4 hPa ENE 3.2 km/h 8 km/h 47 % 0 mm
18:45 34.8 °C 22.2 °C 1010.7 hPa NNW 4.8 km/h 9.7 km/h 48 % 0 mm
18:50 34.6 °C 22 °C 1010.7 hPa ENE 9.7 km/h 11.3 km/h 48 % 0 mm
18:55 34.3 °C 22.4 °C 1010.7 hPa NNW 3.2 km/h 11.3 km/h 50 % 0 mm
19:00 34.4 °C 22.5 °C 1011.1 hPa SW 3.2 km/h 11.3 km/h 50 % 0 mm
19:05 34.3 °C 22.4 °C 1011.1 hPa North 4.8 km/h 11.3 km/h 50 % 0 mm
19:10 34.3 °C 22.7 °C 1011.1 hPa Calm   11.3 km/h 51 % 0 mm
19:15 34.2 °C 22.6 °C 1011.1 hPa NE 1.6 km/h 12.9 km/h 51 % 0 mm
19:20 34.1 °C 22.8 °C 1011.1 hPa Calm   12.9 km/h 52 % 0 mm
19:25 33.9 °C 22.3 °C 1011.4 hPa ENE 1.6 km/h 12.9 km/h 51 % 0 mm
19:30 33.7 °C 22.5 °C 1011.4 hPa NNW 8 km/h 8 km/h 52 % 0 mm
19:35 33.6 °C 22.7 °C 1011.4 hPa Calm   8 km/h 53 % 0 mm
19:40 33.3 °C 22.7 °C 1011.4 hPa North 3.2 km/h 11.3 km/h 54 % 0 mm
19:45 33.1 °C 23.1 °C 1011.4 hPa North 4.8 km/h 11.3 km/h 56 % 0 mm
19:50 32.9 °C 23.2 °C 1011.4 hPa NW 3.2 km/h 11.3 km/h 57 % 0 mm
19:55 32.7 °C 23.4 °C 1011.4 hPa North 6.4 km/h 11.3 km/h 58 % 0 mm
20:01 32.6 °C 23.5 °C 1011.4 hPa NNE 1.6 km/h 12.9 km/h 59 % 0 mm
20:06 32.4 °C 23.4 °C 1011.7 hPa ENE 4.8 km/h 12.9 km/h 59 % 0 mm
20:10 32.3 °C 23.3 °C 1011.7 hPa NNW 1.6 km/h 12.9 km/h 59 % 0 mm
20:16 32.2 °C 23.4 °C 1011.7 hPa NNE 3.2 km/h 8 km/h 60 % 0 mm
20:21 32.1 °C 23.4 °C 1011.7 hPa NNE 1.6 km/h 4.8 km/h 60 % 0 mm
20:26 31.9 °C 23.2 °C 1011.7 hPa Calm   8 km/h 60 % 0 mm
20:31 31.8 °C 23.1 °C 1011.7 hPa North 1.6 km/h 9.7 km/h 60 % 0 mm
20:33 31.8 °C 23.1 °C 1011.7 hPa North 3.2 km/h 9.7 km/h 60 % 0 mm
20:38 31.7 °C 23.3 °C 1011.7 hPa North 3.2 km/h 9.7 km/h 61 % 0 mm
20:43 31.7 °C 23.3 °C 1011.7 hPa North 1.6 km/h 11.3 km/h 61 % 0 mm
20:48 31.6 °C 23.2 °C 1011.7 hPa Calm   11.3 km/h 61 % 0 mm
20:53 31.4 °C 23.2 °C 1011.7 hPa Calm   11.3 km/h 62 % 0 mm
20:58 31.3 °C 23.1 °C 1011.7 hPa ENE 1.6 km/h 6.4 km/h 62 % 0 mm
21:03 31.2 °C 23.3 °C 1011.7 hPa North 1.6 km/h 6.4 km/h 63 % 0 mm
21:08 31.1 °C 23.2 °C 1011.7 hPa NE 3.2 km/h 4.8 km/h 63 % 0 mm
21:13 31 °C 23.4 °C 1011.7 hPa Calm   4.8 km/h 64 % 0 mm
21:18 30.9 °C 23.3 °C 1011.7 hPa North 1.6 km/h 4.8 km/h 64 % 0 mm
21:23 30.8 °C 23.2 °C 1011.7 hPa Calm   4.8 km/h 64 % 0 mm
21:28 30.7 °C 23.1 °C 1012.1 hPa NNW 1.6 km/h 3.2 km/h 64 % 0 mm
21:33 30.7 °C 23.4 °C 1012.1 hPa Calm   4.8 km/h 65 % 0 mm
21:38 30.6 °C 23.3 °C 1012.1 hPa NNE 1.6 km/h 4.8 km/h 65 % 0 mm
21:43 30.6 °C 23.3 °C 1012.1 hPa ENE 1.6 km/h 4.8 km/h 65 % 0 mm
21:48 30.5 °C 23.2 °C 1012.4 hPa NW 1.6 km/h 3.2 km/h 65 % 0 mm
21:53 30.4 °C 23.3 °C 1012.4 hPa Calm   6.4 km/h 66 % 0 mm
21:58 30.4 °C 23.3 °C 1012.4 hPa Calm   6.4 km/h 66 % 0 mm
22:03 30.3 °C 23.5 °C 1012.4 hPa Calm   6.4 km/h 67 % 0 mm
22:08 30.2 °C 23.4 °C 1012.8 hPa Calm   4.8 km/h 67 % 0 mm
22:13 30.1 °C 23.5 °C 1012.8 hPa Calm   4.8 km/h 68 % 0 mm
22:18 30 °C 23.4 °C 1012.8 hPa Calm   3.2 km/h 68 % 0 mm
22:23 29.9 °C 23.6 °C 1012.8 hPa Calm   1.6 km/h 69 % 0 mm
22:28 29.8 °C 23.5 °C 1012.8 hPa Calm   1.6 km/h 69 % 0 mm
22:33 29.7 °C 23.6 °C 1012.8 hPa Calm   1.6 km/h 70 % 0 mm
22:39 29.5 °C 23.7 °C 1012.8 hPa Calm     71 % 0 mm
22:44 29.4 °C 23.8 °C 1013.1 hPa Calm     72 % 0 mm
22:49 29.3 °C 23.7 °C 1013.1 hPa Calm     72 % 0 mm
22:54 29.2 °C 23.9 °C 1013.1 hPa Calm     73 % 0 mm
22:59 29.2 °C 23.9 °C 1013.1 hPa Calm     73 % 0 mm
23:04 29.2 °C 24.1 °C 1013.1 hPa Calm   1.6 km/h 74 % 0 mm
23:09 29.1 °C 24 °C 1013.4 hPa Calm   1.6 km/h 74 % 0 mm
23:14 29.1 °C 24 °C 1013.4 hPa Calm   1.6 km/h 74 % 0 mm
23:19 29 °C 23.9 °C 1013.4 hPa Calm   1.6 km/h 74 % 0 mm
23:24 28.9 °C 24 °C 1013.4 hPa Calm     75 % 0 mm
23:29 28.8 °C 23.9 °C 1013.4 hPa Calm     75 % 0 mm
23:34 28.8 °C 24.1 °C 1013.4 hPa Calm   1.6 km/h 76 % 0 mm
23:39 28.8 °C 24.1 °C 1013.4 hPa Calm   1.6 km/h 76 % 0 mm
23:44 28.8 °C 24.4 °C 1013.4 hPa Calm   1.6 km/h 77 % 0 mm
23:49 28.8 °C 24.4 °C 1013.4 hPa Calm   1.6 km/h 77 % 0 mm
23:54 28.8 °C 24.4 °C 1013.4 hPa Calm   1.6 km/h 77 % 0 mm
23:59 28.7 °C 24.3 °C 1013.4 hPa Calm   1.6 km/h 77 % 0 mm
Spring, Texas: Villages of Bridgestone
Compliments of Weather Underground - 3.25 mb

Script developed by  Jim McMurry - jmcmurry@mwt.net Adapted for the template by  Wim van der Kuil - Leuven-Template.eu

You find our weather info also at:

UK Metoffice

WeatherCloud

Weather Underground

Mid-South Weather Network

AWEKAS

Citizen Weather Observer Program (CWOP)

HAMweather, WeatherForYou, PWS Weather

Equipment we use:

Weather-station
Davis Vantage Vue

Weather-program
Meteohub

Weather-server
Debian 7.9 x86 (Guest)

Provider
DreamHost

Davis Vantage Vue

Meteohub

Debian 7.9 x86 (Guest)

DreamHost